Time;durP1;ratioP1;P1;durP2;ratioP2;P2;SDS_P1;SDS_P2;PMS_P1;PMS_P2;Temp;Humidity;BMP_temperature;BMP_pressure;BME280_temperature;BME280_humidity;BME280_pressure;Samples;Min_cycle;Max_cycle;Signal;HPM_P1;HPM_P2
2022/11/10 05:31:24;;;;;;;;;10.50;9.00;;;;;11.33;72.67;101956.06;1415330;26;46247;-77
2022/11/10 05:33:50;;;;;;;;;7.50;5.00;;;;;11.33;72.45;101964.13;4994576;28;45373;-75
2022/11/10 05:36:15;;;;;;;;;10.00;8.50;;;;;11.21;72.58;101943.91;4976511;28;47250;-77
2022/11/10 05:38:41;;;;;;;;;8.75;7.50;;;;;11.29;72.57;101975.91;4994187;28;45297;-77
2022/11/10 05:41:06;;;;;;;;;9.75;8.50;;;;;11.27;72.63;101972.38;4994051;28;45282;-77
2022/11/10 05:43:32;;;;;;;;;1.00;0.00;;;;;11.26;72.77;101973.28;4994505;28;45304;-77
2022/11/10 05:45:57;;;;;;;;;11.00;10.25;;;;;11.17;72.82;101966.38;4994099;28;45264;-78
2022/11/10 05:48:22;;;;;;;;;8.50;6.00;;;;;11.23;72.93;101973.38;4993960;28;45948;-75
2022/11/10 05:50:48;;;;;;;;;8.25;6.75;;;;;11.21;73.09;101978.81;4993923;28;45272;-77
2022/11/10 05:53:13;;;;;;;;;9.00;8.00;;;;;11.18;73.07;101972.63;4976247;28;45412;-77
2022/11/10 05:55:39;;;;;;;;;5.00;5.00;;;;;11.06;73.02;101959.59;4993912;28;45522;-78
2022/11/10 05:58:04;;;;;;;;;7.75;7.50;;;;;11.19;72.96;101980.66;4994201;28;45330;-76
2022/11/10 06:00:31;;;;;;;;;6.50;6.25;;;;;11.14;72.95;101973.66;4993885;28;45266;-78
2022/11/10 06:03:00;;;;;;;;;7.00;6.00;;;;;11.13;73.13;101967.41;4994022;28;45452;-77
2022/11/10 06:05:27;;;;;;;;;7.00;7.00;;;;;11.19;73.06;101983.34;4993958;28;45511;-77
2022/11/10 06:07:52;;;;;;;;;6.75;6.75;;;;;11.21;72.81;101980.63;4998854;28;45326;-78
2022/11/10 06:10:18;;;;;;;;;4.75;4.75;;;;;11.09;72.73;101964.84;4993993;28;45226;-75
2022/11/10 06:12:43;;;;;;;;;10.00;8.00;;;;;11.19;72.87;101980.66;4992895;28;45217;-74
2022/11/10 06:15:10;;;;;;;;;5.00;3.00;;;;;10.98;72.68;101949.91;4994384;28;46039;-80
2022/11/10 06:17:38;;;;;;;;;8.75;7.25;;;;;11.18;72.81;101995.00;4995008;28;46871;-78
2022/11/10 06:20:04;;;;;;;;;6.50;6.50;;;;;11.13;72.87;101990.69;4997317;28;45384;-76
2022/11/10 06:22:30;;;;;;;;;10.25;6.25;;;;;11.13;72.67;101972.78;4979243;28;45604;-75
2022/11/10 06:24:55;;;;;;;;;9.75;9.75;;;;;11.15;72.58;101992.38;4976001;28;50928;-76
2022/11/10 06:27:20;;;;;;;;;8.75;6.25;;;;;11.11;73.05;101980.00;4990746;28;47178;-76
2022/11/10 06:29:45;;;;;;;;;8.00;7.50;;;;;11.11;72.92;101995.22;4997175;28;49689;-76
2022/11/10 06:32:11;;;;;;;;;7.50;5.50;;;;;10.88;72.86;101964.53;4997099;28;45503;-76
2022/11/10 06:34:36;;;;;;;;;10.75;8.25;;;;;10.84;72.83;101967.34;4997570;28;45657;-79
2022/11/10 06:37:02;;;;;;;;;8.00;8.00;;;;;10.98;73.04;101998.22;4995554;28;47219;-77
2022/11/10 06:39:27;;;;;;;;;11.00;7.50;;;;;10.84;72.90;101981.63;4997009;28;45285;-77
2022/11/10 06:41:52;;;;;;;;;7.75;6.25;;;;;10.92;72.96;101997.50;5000269;28;45197;-79
2022/11/10 06:44:18;;;;;;;;;9.50;7.75;;;;;11.01;73.17;102016.06;4984063;28;45388;-78
2022/11/10 06:46:43;;;;;;;;;9.00;7.25;;;;;11.03;72.86;102018.69;5001656;28;45548;-75
2022/11/10 06:49:08;;;;;;;;;7.75;7.75;;;;;10.91;72.79;102006.47;4998625;28;45215;-75
2022/11/10 06:51:33;;;;;;;;;7.50;7.50;;;;;11.03;72.84;102029.44;4997734;28;45203;-75
2022/11/10 06:53:59;;;;;;;;;7.25;7.25;;;;;10.87;72.94;102016.44;4978633;28;47314;-75
2022/11/10 06:56:24;;;;;;;;;6.00;6.00;;;;;11.00;74.16;102036.63;4996360;28;54128;-76
2022/11/10 06:58:50;;;;;;;;;6.00;6.00;;;;;10.99;73.47;102024.13;4996252;28;45180;-72
2022/11/10 07:01:15;;;;;;;;;6.00;6.00;;;;;10.95;73.82;102018.91;4996798;28;45217;-75
2022/11/10 07:03:41;;;;;;;;;8.75;7.75;;;;;11.13;73.39;102036.31;4996011;28;45338;-75
2022/11/10 07:06:06;;;;;;;;;8.25;6.00;;;;;11.21;73.17;102050.41;4996197;28;48612;-77
2022/11/10 07:08:32;;;;;;;;;6.50;6.00;;;;;11.22;73.26;102055.72;4996022;28;46374;-75
2022/11/10 07:10:57;;;;;;;;;6.75;6.75;;;;;11.08;72.70;102041.78;4996851;28;45920;-76
2022/11/10 07:13:23;;;;;;;;;10.75;9.75;;;;;11.27;72.96;102067.22;4996095;28;45297;-73
2022/11/10 07:15:48;;;;;;;;;5.25;5.25;;;;;11.25;72.81;102063.69;4996117;28;46222;-72
2022/11/10 07:18:13;;;;;;;;;6.50;5.75;;;;;11.27;72.90;102063.66;4996114;28;45324;-72
2022/11/10 07:20:39;;;;;;;;;6.25;6.25;;;;;11.36;72.44;102083.06;4996719;28;45377;-74
2022/11/10 07:23:06;;;;;;;;;7.75;7.75;;;;;11.36;72.18;102085.75;4995360;28;45444;-73
2022/11/10 07:25:35;;;;;;;;;10.25;8.75;;;;;11.19;72.13;102053.13;4972448;28;46398;-74
2022/11/10 07:28:05;;;;;;;;;5.00;3.75;;;;;11.31;72.04;102070.72;4990416;28;45490;-74
2022/11/10 07:30:35;;;;;;;;;8.75;8.25;;;;;11.28;72.90;102073.47;4997878;28;45404;-74
2022/11/10 07:33:10;;;;;;;;;10.00;7.25;;;;;11.32;72.09;102083.19;4975323;28;46280;-74
2022/11/10 07:35:36;;;;;;;;;6.25;6.25;;;;;11.26;71.91;102076.19;4996251;28;46458;-74
2022/11/10 07:38:05;;;;;;;;;9.00;9.00;;;;;11.25;71.84;102081.59;4984078;28;45586;-75
2022/11/10 07:40:30;;;;;;;;;8.00;8.00;;;;;11.27;72.24;102095.88;4979659;28;45467;-75
2022/11/10 07:42:56;;;;;;;;;10.00;8.75;;;;;11.26;71.87;102112.88;4976489;28;45311;-73
2022/11/10 07:45:22;;;;;;;;;11.00;9.00;;;;;11.10;72.15;102085.59;4986529;28;45484;-75
2022/11/10 07:47:47;;;;;;;;;9.25;9.25;;;;;11.05;72.47;102090.19;4976806;28;45439;-73
2022/11/10 07:50:12;;;;;;;;;8.25;8.25;;;;;11.14;72.34;102111.44;4975904;28;45349;-74
2022/11/10 07:52:38;;;;;;;;;8.50;8.00;;;;;11.15;72.12;102123.91;4975855;28;45327;-74
2022/11/10 07:55:04;;;;;;;;;8.00;8.00;;;;;11.17;72.31;102129.25;4975930;28;46206;-74
2022/11/10 07:57:30;;;;;;;;;11.00;8.75;;;;;11.17;72.23;102143.53;4975969;28;45325;-74
2022/11/10 07:59:55;;;;;;;;;10.75;10.75;;;;;11.11;72.89;102137.47;4976231;28;45674;-73
2022/11/10 08:02:20;;;;;;;;;15.25;12.00;;;;;11.17;72.92;102151.59;4985528;28;45342;-74
2022/11/10 08:04:46;;;;;;;;;11.00;11.00;;;;;10.96;72.84;102122.63;4975688;28;46083;-72
2022/11/10 08:07:11;;;;;;;;;19.75;14.50;;;;;11.20;73.39;102153.31;4995187;28;45277;-75
2022/11/10 08:09:36;;;;;;;;;18.00;17.00;;;;;11.24;73.60;102171.97;4994293;28;45546;-74
2022/11/10 08:12:02;;;;;;;;;19.25;16.00;;;;;11.21;73.51;102168.50;4989005;28;45276;-75
2022/11/10 08:14:27;;;;;;;;;17.50;15.50;;;;;11.12;73.64;102147.28;4975686;28;45295;-75
2022/11/10 08:16:53;;;;;;;;;20.25;12.75;;;;;11.20;73.64;102164.06;4975737;28;45417;-73
2022/11/10 08:19:18;;;;;;;;;20.00;16.75;;;;;11.34;73.45;102183.38;4975706;28;45373;-74
2022/11/10 08:21:43;;;;;;;;;26.00;18.25;;;;;11.37;73.89;102188.66;4975748;28;45442;-74
2022/11/10 08:24:09;;;;;;;;;19.50;18.25;;;;;11.35;73.61;102177.97;4975504;28;46088;-75
2022/11/10 08:26:34;;;;;;;;;16.00;15.50;;;;;11.15;73.65;102145.38;4975460;28;45381;-76
2022/11/10 08:28:59;;;;;;;;;15.25;11.25;;;;;11.42;73.81;102184.03;4975819;28;45397;-74
2022/11/10 08:31:25;;;;;;;;;17.25;15.75;;;;;11.49;73.04;102193.69;4975729;28;46171;-74
2022/11/10 08:33:50;;;;;;;;;17.00;13.50;;;;;11.43;73.25;102179.56;4995429;28;45584;-73
2022/11/10 08:36:16;;;;;;;;;18.00;18.00;;;;;11.56;73.96;102199.81;4994581;28;45377;-74
2022/11/10 08:38:41;;;;;;;;;18.50;18.50;;;;;11.58;73.42;102204.19;4993860;28;45827;-74
2022/11/10 08:41:07;;;;;;;;;14.25;14.25;;;;;11.50;72.96;102183.84;4994759;28;45384;-74
2022/11/10 08:43:32;;;;;;;;;20.25;19.00;;;;;11.65;73.06;102210.31;4994918;28;46369;-74
2022/11/10 08:45:58;;;;;;;;;19.50;16.00;;;;;11.66;72.44;102201.31;4989711;28;45357;-75
2022/11/10 08:48:23;;;;;;;;;19.00;14.75;;;;;11.66;72.36;102201.31;4977598;28;45247;-73
2022/11/10 08:50:50;;;;;;;;;23.75;18.25;;;;;11.66;72.69;102202.19;4976765;28;45433;-74
2022/11/10 08:53:22;;;;;;;;;16.25;16.25;;;;;11.71;72.27;102215.50;4976121;28;45452;-76
2022/11/10 08:55:48;;;;;;;;;18.00;15.25;;;;;11.71;72.43;102210.13;4979189;28;45434;-74
2022/11/10 08:58:17;;;;;;;;;17.75;15.25;;;;;11.80;72.47;102230.53;4995327;28;45337;-74
2022/11/10 09:00:42;;;;;;;;;20.00;18.25;;;;;11.74;72.73;102219.00;4995153;28;45627;-74
2022/11/10 09:03:20;;;;;;;;;19.75;15.00;;;;;11.77;72.52;102217.16;4982488;28;45670;-75
2022/11/10 09:05:47;;;;;;;;;13.75;13.75;;;;;11.87;72.42;102224.06;4985305;28;45500;-74
2022/11/10 09:08:14;;;;;;;;;16.50;14.00;;;;;11.93;71.84;102232.84;4982169;28;45339;-74
2022/11/10 09:10:44;;;;;;;;;15.75;15.75;;;;;11.97;71.05;102231.84;4996270;28;45336;-74
2022/11/10 09:13:11;;;;;;;;;15.00;14.25;;;;;11.95;71.69;102232.78;4994848;28;45413;-75
2022/11/10 09:15:37;;;;;;;;;18.50;15.50;;;;;11.94;71.60;102231.03;4994925;28;45536;-75
2022/11/10 09:18:04;;;;;;;;;17.25;15.25;;;;;11.98;71.30;102238.97;4992930;28;45352;-74
2022/11/10 09:20:32;;;;;;;;;22.25;18.00;;;;;11.95;71.04;102224.72;4994438;28;45420;-74
2022/11/10 09:23:12;;;;;;;;;14.50;14.25;;;;;12.05;70.85;102242.38;4993556;28;45924;-76
2022/11/10 09:25:39;;;;;;;;;20.25;18.25;;;;;12.15;71.22;102251.94;4994274;28;45442;-75
2022/11/10 09:28:05;;;;;;;;;15.75;15.25;;;;;12.17;70.79;102259.94;4995362;28;45381;-76
2022/11/10 09:30:30;;;;;;;;;18.00;18.00;;;;;12.17;70.86;102252.75;4994683;28;45374;-73
2022/11/10 09:32:58;;;;;;;;;22.00;18.50;;;;;12.21;70.86;102269.69;4994188;28;45309;-74
2022/11/10 09:35:24;;;;;;;;;26.50;20.00;;;;;12.22;70.99;102263.41;4995153;28;45460;-74
2022/11/10 09:37:50;;;;;;;;;21.00;21.00;;;;;12.22;70.85;102266.97;4995510;28;45539;-75
2022/11/10 09:40:19;;;;;;;;;21.00;17.00;;;;;12.22;70.99;102260.72;4994401;28;45516;-76
2022/11/10 09:42:46;;;;;;;;;21.50;19.50;;;;;12.16;72.19;102252.81;4993915;28;47832;-74
2022/11/10 09:45:43;;;;;;;;;22.00;21.00;;;;;12.29;71.78;102267.66;4994300;28;45519;-75
2022/11/10 09:48:14;;;;;;;;;23.00;21.00;;;;;12.32;72.19;102265.78;4972496;28;45326;-74
2022/11/10 09:50:48;;;;;;;;;30.50;26.00;;;;;12.35;71.90;102272.88;4997048;28;45926;-75
2022/11/10 09:53:20;;;;;;;;;18.00;18.00;;;;;12.37;71.37;102276.41;4996626;28;47334;-74
2022/11/10 09:55:48;;;;;;;;;17.50;16.00;;;;;12.30;71.52;102256.88;4998342;28;45401;-73
2022/11/10 09:58:14;;;;;;;;;16.75;15.50;;;;;12.26;71.07;102252.50;4981290;28;45468;-75
2022/11/10 10:00:51;;;;;;;;;21.50;20.00;;;;;12.24;71.69;102264.25;4997835;28;45486;-75
2022/11/10 10:03:23;;;;;;;;;26.25;25.75;;;;;12.27;72.05;102280.28;4982990;28;45627;-74
2022/11/10 10:06:08;;;;;;;;;25.00;18.50;;;;;12.11;71.72;102242.19;4985543;28;45178;-74
2022/11/10 10:08:44;;;;;;;;;17.25;17.25;;;;;12.14;71.81;102260.94;4997433;28;45420;-75
2022/11/10 10:11:28;;;;;;;;;21.00;19.25;;;;;12.21;72.05;102280.44;4997494;28;45289;-76
2022/11/10 10:14:07;;;;;;;;;22.00;20.50;;;;;12.17;72.23;102282.34;4997032;28;46368;-74
2022/11/10 10:16:42;;;;;;;;;24.00;20.50;;;;;12.25;72.09;102298.28;4997102;28;45397;-74
2022/11/10 10:19:37;;;;;;;;;19.00;19.00;;;;;12.31;71.99;102306.16;4997275;28;45457;-76
2022/11/10 10:22:02;;;;;;;;;24.25;20.00;;;;;12.33;72.52;102309.69;4975790;28;45598;-76
2022/11/10 10:24:31;;;;;;;;;17.50;17.50;;;;;12.30;72.01;102307.09;4997093;28;46088;-73
2022/11/10 10:26:59;;;;;;;;;18.75;16.00;;;;;12.34;71.91;102320.38;4997643;28;45456;-75
2022/11/10 10:29:39;;;;;;;;;20.25;20.00;;;;;12.24;72.33;102304.56;4997363;28;45492;-76
2022/11/10 10:32:11;;;;;;;;;22.50;20.00;;;;;12.29;71.71;102311.59;4994045;28;45561;-76
2022/11/10 10:34:38;;;;;;;;;19.00;18.25;;;;;12.26;71.88;102300.00;4992169;28;46095;-76
2022/11/10 10:37:03;;;;;;;;;18.75;18.75;;;;;12.48;71.66;102328.09;4974446;28;45472;-72
2022/11/10 10:39:36;;;;;;;;;20.00;18.50;;;;;12.43;71.79;102314.75;4976403;28;45356;-75
2022/11/10 10:42:06;;;;;;;;;23.75;18.50;;;;;12.59;71.48;102330.47;4998588;28;45543;-74
2022/11/10 10:44:31;;;;;;;;;17.75;17.50;;;;;12.73;71.12;102341.72;4995748;28;47258;-74
2022/11/10 10:47:00;;;;;;;;;18.75;18.75;;;;;12.85;70.86;102355.66;4983331;28;45333;-74
2022/11/10 10:49:27;;;;;;;;;21.75;19.50;;;;;13.08;70.42;102354.13;4977809;28;45276;-76
2022/11/10 10:52:04;;;;;;;;;18.75;18.75;;;;;13.74;68.61;102344.81;4976370;28;45386;-73
2022/11/10 10:54:36;;;;;;;;;18.25;18.25;;;;;14.57;66.12;102309.50;4976946;28;45521;-74
2022/11/10 10:57:19;;;;;;;;;24.00;18.00;;;;;15.89;62.41;102333.03;4976851;28;45418;-75
2022/11/10 10:59:44;;;;;;;;;22.00;17.50;;;;;17.14;58.69;102327.34;4975203;28;45417;-76
2022/11/10 11:02:22;;;;;;;;;22.75;20.75;;;;;18.25;54.92;102333.47;4987595;28;45470;-76
2022/11/10 11:05:09;;;;;;;;;21.00;19.25;;;;;19.46;52.16;102323.13;4993390;28;45743;-75
2022/11/10 11:07:34;;;;;;;;;25.75;22.25;;;;;20.54;49.33;102326.63;4977282;28;45502;-76
2022/11/10 11:10:00;;;;;;;;;17.50;17.50;;;;;21.36;46.79;102297.63;4995386;28;45474;-75
2022/11/10 11:12:30;;;;;;;;;18.75;16.75;;;;;22.18;45.08;102302.97;4995287;28;45543;-75
2022/11/10 11:15:28;;;;;;;;;21.75;18.00;;;;;22.90;42.45;102304.16;4994393;28;48619;-75
2022/11/10 11:18:03;;;;;;;;;15.00;15.00;;;;;23.51;41.42;102287.81;4995651;28;45303;-75
2022/11/10 11:20:45;;;;;;;;;18.25;17.25;;;;;24.07;39.27;102288.94;4986875;28;45418;-75
2022/11/10 11:23:41;;;;;;;;;23.00;19.50;;;;;24.83;38.20;102305.66;4975821;28;45335;-75
2022/11/10 11:26:18;;;;;;;;;18.75;17.25;;;;;25.03;37.54;102284.81;4975836;28;46303;-75
2022/11/10 11:29:01;;;;;;;;;22.00;18.50;;;;;25.46;37.03;102303.22;4993989;28;45420;-75
2022/11/10 11:31:34;;;;;;;;;20.50;17.50;;;;;25.69;36.34;102284.84;4991682;28;45456;-76
2022/11/10 11:34:11;;;;;;;;;16.50;16.25;;;;;25.90;36.36;102292.09;4995144;28;45515;-75
2022/11/10 11:36:45;;;;;;;;;17.50;16.50;;;;;26.02;36.23;102300.28;4980157;28;45437;-74
2022/11/10 11:39:19;;;;;;;;;18.75;17.50;;;;;26.07;35.29;102298.00;4991991;28;45312;-76
2022/11/10 11:42:09;;;;;;;;;20.75;15.00;;;;;26.20;35.03;102299.53;4988322;28;45350;-74
2022/11/10 11:45:11;;;;;;;;;17.75;17.00;;;;;26.36;35.01;102299.13;4983786;28;45759;-75
2022/11/10 11:47:51;;;;;;;;;18.75;16.25;;;;;26.63;34.65;102306.78;4976267;28;45357;-76
2022/11/10 11:50:23;;;;;;;;;13.75;13.75;;;;;26.71;33.86;102305.09;4975498;28;45471;-74
2022/11/10 11:52:48;;;;;;;;;19.00;13.75;;;;;26.25;35.49;102305.53;4986859;28;45510;-74
2022/11/10 11:55:30;;;;;;;;;13.00;13.00;;;;;25.14;36.15;102305.91;4974361;28;45459;-76
2022/11/10 11:58:08;;;;;;;;;16.00;14.00;;;;;23.79;39.16;102284.72;4975833;28;46461;-75
2022/11/10 12:01:02;;;;;;;;;14.25;12.75;;;;;22.97;40.51;102305.47;4975149;28;45432;-76
2022/11/10 12:03:46;;;;;;;;;16.75;15.25;;;;;22.24;42.20;102307.09;4965430;28;45351;-74
2022/11/10 12:06:11;;;;;;;;;14.75;13.00;;;;;21.30;44.10;102308.97;4986388;28;45603;-76
2022/11/10 12:08:46;;;;;;;;;16.50;15.25;;;;;20.66;45.56;102304.94;4995393;28;45968;-73
2022/11/10 12:11:38;;;;;;;;;12.75;12.75;;;;;19.95;47.73;102309.34;4995733;28;45266;-75
2022/11/10 12:14:41;;;;;;;;;13.75;12.50;;;;;19.36;48.96;102319.16;4995484;28;45359;-75
2022/11/10 12:17:36;;;;;;;;;17.75;15.50;;;;;18.79;50.39;102304.31;4996122;28;45425;-75
2022/11/10 12:20:23;;;;;;;;;15.00;13.25;;;;;18.27;51.91;102300.81;4995562;28;45510;-76
2022/11/10 12:23:15;;;;;;;;;14.00;14.00;;;;;18.02;53.26;102318.38;4996659;28;45294;-74
2022/11/10 12:25:48;;;;;;;;;17.00;13.00;;;;;17.75;54.28;102320.69;4997274;28;45353;-76
2022/11/10 12:28:23;;;;;;;;;16.25;15.50;;;;;17.46;54.78;102315.78;4998487;28;45482;-76
2022/11/10 12:30:54;;;;;;;;;12.25;12.00;;;;;17.28;55.19;102320.28;4997857;28;48945;-77
2022/11/10 12:33:48;;;;;;;;;17.00;15.25;;;;;17.09;56.09;102318.56;4995686;28;45539;-75
2022/11/10 12:36:17;;;;;;;;;15.00;13.75;;;;;16.86;57.01;102325.06;4995873;28;45500;-78
2022/11/10 12:38:56;;;;;;;;;18.00;15.25;;;;;16.65;57.94;102313.41;4977708;28;45664;-74
2022/11/10 12:41:22;;;;;;;;;11.25;11.25;;;;;16.63;58.01;102331.53;4995588;28;46296;-74
2022/11/10 12:44:12;;;;;;;;;15.25;13.50;;;;;16.53;58.71;102327.47;4995790;28;45397;-73
2022/11/10 12:46:42;;;;;;;;;15.00;15.00;;;;;16.41;58.47;102322.63;4995255;28;45462;-75
2022/11/10 12:49:19;;;;;;;;;13.75;13.75;;;;;16.40;58.68;102320.84;4977122;28;46332;-76
2022/11/10 12:51:49;;;;;;;;;16.00;15.00;;;;;16.30;59.61;102314.09;4993026;28;47324;-75
2022/11/10 12:54:16;;;;;;;;;14.00;14.00;;;;;16.15;59.05;102297.59;4994505;28;45282;-74
2022/11/10 12:56:50;;;;;;;;;15.25;14.25;;;;;16.21;60.02;102310.84;4993646;28;45405;-75
2022/11/10 12:59:18;;;;;;;;;14.25;14.00;;;;;16.14;60.48;102312.06;4977592;28;46521;-73
2022/11/10 13:01:45;;;;;;;;;14.75;14.00;;;;;16.15;60.38;102303.00;4994989;28;46421;-74
2022/11/10 13:04:14;;;;;;;;;12.75;12.75;;;;;16.13;60.67;102304.03;4995422;28;45302;-74
2022/11/10 13:06:51;;;;;;;;;14.25;13.00;;;;;16.13;60.55;102307.59;4994958;28;45388;-75
2022/11/10 13:09:43;;;;;;;;;14.75;11.50;;;;;16.10;61.03;102321.25;4991308;28;45500;-74
2022/11/10 13:12:20;;;;;;;;;11.00;11.00;;;;;16.07;61.13;102320.53;4981382;28;45377;-74
2022/11/10 13:14:49;;;;;;;;;14.25;14.25;;;;;16.04;61.13;102321.53;5009519;28;46219;-75
2022/11/10 13:17:27;;;;;;;;;11.50;9.50;;;;;16.08;60.94;102322.25;4998049;28;45365;-74
2022/11/10 13:19:54;;;;;;;;;12.25;10.50;;;;;15.95;61.33;102313.81;4997212;28;45522;-74
2022/11/10 13:22:39;;;;;;;;;9.00;9.00;;;;;15.89;61.79;102316.78;4987419;28;46276;-74
2022/11/10 13:25:38;;;;;;;;;8.50;8.50;;;;;15.87;61.92;102324.09;4985392;28;45371;-77
2022/11/10 13:28:08;;;;;;;;;12.00;10.50;;;;;15.85;62.39;102316.03;4994655;28;45404;-73
2022/11/10 13:30:38;;;;;;;;;11.75;10.50;;;;;15.83;62.49;102322.44;4976704;28;46169;-75
2022/11/10 13:33:21;;;;;;;;;7.50;5.00;;;;;15.92;62.42;102327.47;4987464;28;45485;-73
2022/11/10 13:35:55;;;;;;;;;8.75;8.75;;;;;15.83;61.91;102315.22;4973454;28;45524;-77
2022/11/10 13:38:43;;;;;;;;;9.25;7.50;;;;;15.74;62.16;102325.53;4974860;28;45534;-74
2022/11/10 13:41:23;;;;;;;;;6.25;6.25;;;;;15.46;62.79;102306.88;4981024;28;45370;-76
2022/11/10 13:43:53;;;;;;;;;6.00;6.00;;;;;15.65;62.46;102334.06;4975266;28;45476;-75
2022/11/10 13:46:20;;;;;;;;;5.75;5.75;;;;;15.80;62.18;102338.81;4974083;28;45590;-75
2022/11/10 13:49:03;;;;;;;;;8.25;8.25;;;;;15.52;62.81;102312.91;4974461;28;45310;-75
2022/11/10 13:52:05;;;;;;;;;8.50;8.50;;;;;15.73;62.36;102331.91;4974745;28;45658;-74
2022/11/10 13:54:45;;;;;;;;;11.25;9.75;;;;;15.75;63.00;102333.59;4982159;28;46379;-76
2022/11/10 13:57:33;;;;;;;;;12.00;10.00;;;;;15.73;62.87;102337.31;4994360;28;45357;-74
2022/11/10 14:00:01;;;;;;;;;11.25;11.25;;;;;15.65;62.75;102334.06;4994486;28;45347;-74
2022/11/10 14:02:36;;;;;;;;;11.25;11.25;;;;;15.70;62.54;102359.97;4994232;28;45412;-74
2022/11/10 14:05:27;;;;;;;;;10.00;9.75;;;;;15.58;62.62;102322.59;4993860;28;45396;-75
2022/11/10 14:08:01;;;;;;;;;13.75;10.25;;;;;15.65;62.43;102340.31;4947333;28;46170;-75
2022/11/10 14:10:40;;;;;;;;;10.50;8.00;;;;;15.44;62.54;102320.44;4981700;28;45612;-74
2022/11/10 14:13:17;;;;;;;;;11.75;10.25;;;;;15.52;63.12;102347.16;4979119;28;45336;-76
2022/11/10 14:15:47;;;;;;;;;11.00;8.50;;;;;15.38;63.25;102357.66;4977751;28;45285;-73
2022/11/10 14:18:37;;;;;;;;;10.25;10.25;;;;;15.35;63.57;102372.16;4977329;28;45251;-74
2022/11/10 14:21:03;;;;;;;;;12.75;11.00;;;;;15.22;63.85;102373.59;4976388;28;45763;-75
2022/11/10 14:23:44;;;;;;;;;10.00;8.25;;;;;15.13;63.93;102391.06;4975423;28;45515;-74
2022/11/10 14:26:32;;;;;;;;;6.25;5.75;;;;;14.91;65.29;102386.50;4974132;28;45481;-76
2022/11/10 14:29:20;;;;;;;;;8.25;8.25;;;;;14.63;65.62;102365.09;4974424;28;45350;-73
2022/11/10 14:31:45;;;;;;;;;7.25;7.25;;;;;14.53;65.91;102348.34;4982343;28;45366;-74
2022/11/10 14:34:16;;;;;;;;;11.00;9.25;;;;;14.75;65.59;102391.59;4980658;28;45516;-76
2022/11/10 14:36:57;;;;;;;;;8.75;6.00;;;;;14.55;66.21;102383.34;4974604;28;46201;-76
2022/11/10 14:39:28;;;;;;;;;10.00;9.00;;;;;14.51;66.31;102387.13;4975601;28;45452;-74
2022/11/10 14:41:56;;;;;;;;;8.75;7.25;;;;;14.59;66.01;102398.50;5001757;28;45474;-75
2022/11/10 14:44:25;;;;;;;;;9.50;7.50;;;;;14.49;66.12;102391.66;4996830;28;46090;-73
2022/11/10 14:46:51;;;;;;;;;10.25;8.50;;;;;14.48;66.44;102376.41;4997124;28;45384;-74
2022/11/10 14:49:24;;;;;;;;;9.75;7.75;;;;;14.52;66.72;102397.84;4996917;28;45340;-75
2022/11/10 14:51:56;;;;;;;;;8.00;7.75;;;;;14.51;66.84;102398.78;4996481;28;45384;-75
2022/11/10 14:54:25;;;;;;;;;8.00;8.00;;;;;14.46;66.64;102398.06;4996697;28;45503;-75
2022/11/10 14:56:53;;;;;;;;;6.75;6.75;;;;;14.25;66.68;102377.22;4996405;28;45559;-74
2022/11/10 14:59:20;;;;;;;;;6.25;6.25;;;;;14.42;66.58;102401.81;4994456;28;45516;-74
2022/11/10 15:01:55;;;;;;;;;10.25;7.25;;;;;14.18;66.16;102368.47;4981379;28;45377;-75
2022/11/10 15:04:32;;;;;;;;;5.00;5.00;;;;;14.27;66.27;102394.22;4976776;28;45220;-74
2022/11/10 15:06:58;;;;;;;;;7.25;6.75;;;;;14.19;67.00;102401.72;5006559;28;47206;-75
2022/11/10 15:09:30;;;;;;;;;8.25;8.00;;;;;14.17;67.24;102401.75;4977726;28;45419;-72
2022/11/10 15:11:58;;;;;;;;;8.00;7.00;;;;;14.16;67.13;102396.41;4990425;28;45461;-75
2022/11/10 15:14:40;;;;;;;;;9.50;9.50;;;;;14.17;67.86;102399.06;4976792;28;45326;-73
2022/11/10 15:17:09;;;;;;;;;15.00;13.25;;;;;14.14;68.65;102395.56;4984008;28;46432;-76
2022/11/10 15:19:52;;;;;;;;;12.50;10.75;;;;;14.13;68.96;102394.69;4996753;28;45411;-75
2022/11/10 15:22:34;;;;;;;;;15.50;13.50;;;;;14.04;68.86;102381.50;4980363;28;45345;-72
2022/11/10 15:25:08;;;;;;;;;16.75;13.00;;;;;14.06;69.35;102386.88;4996781;28;45876;-75
2022/11/10 15:27:33;;;;;;;;;13.50;11.75;;;;;14.03;69.33;102383.34;4983305;28;46236;-76
2022/11/10 15:30:01;;;;;;;;;14.50;10.50;;;;;14.05;69.29;102385.09;4958946;28;45283;-71
2022/11/10 15:32:33;;;;;;;;;15.00;15.00;;;;;14.04;69.12;102386.91;4984028;28;45500;-73
2022/11/10 15:35:23;;;;;;;;;16.00;14.50;;;;;14.01;69.49;102376.25;4996504;28;45402;-74
2022/11/10 15:38:25;;;;;;;;;13.75;12.25;;;;;14.10;69.37;102391.22;4995997;28;46198;-74
2022/11/10 15:41:05;;;;;;;;;18.75;13.50;;;;;14.05;69.13;102385.97;4982617;28;45519;-75
2022/11/10 15:43:30;;;;;;;;;12.25;11.75;;;;;14.06;69.68;102382.34;4986485;28;45417;-74
2022/11/10 15:46:08;;;;;;;;;13.75;13.75;;;;;14.08;69.16;102393.97;4987544;28;45580;-73
2022/11/10 15:48:48;;;;;;;;;12.25;12.25;;;;;14.08;69.28;102379.63;4983846;28;45466;-73
2022/11/10 15:51:16;;;;;;;;;12.00;12.00;;;;;14.16;69.29;102389.19;4995812;28;45511;-73
2022/11/10 15:53:47;;;;;;;;;11.75;10.25;;;;;14.15;69.08;102386.56;4997955;28;45349;-73
2022/11/10 15:56:18;;;;;;;;;13.25;10.75;;;;;14.12;68.93;102387.53;4987274;28;45576;-74
2022/11/10 15:58:48;;;;;;;;;15.00;11.00;;;;;14.10;68.81;102380.44;4994228;28;46100;-73
2022/11/10 16:01:15;;;;;;;;;16.50;11.75;;;;;14.07;69.18;102384.13;4996007;28;45341;-72
2022/11/10 16:03:41;;;;;;;;;11.00;9.25;;;;;14.03;68.63;102369.00;4996251;28;45464;-73
2022/11/10 16:06:11;;;;;;;;;14.50;12.25;;;;;14.02;68.63;102378.00;4996183;28;45546;-75
2022/11/10 16:08:38;;;;;;;;;16.00;15.00;;;;;14.00;68.65;102364.56;5000372;28;45330;-73
2022/11/10 16:11:05;;;;;;;;;11.00;8.25;;;;;13.95;69.08;102366.53;4998692;28;45502;-74
2022/11/10 16:13:31;;;;;;;;;17.50;12.75;;;;;14.08;69.07;102383.19;4998747;28;45483;-76
2022/11/10 16:16:00;;;;;;;;;10.25;9.75;;;;;13.97;68.74;102375.47;4998315;28;45476;-74
2022/11/10 16:18:29;;;;;;;;;12.00;11.75;;;;;13.98;68.98;102381.75;4995326;28;45348;-77
2022/11/10 16:20:55;;;;;;;;;12.00;12.00;;;;;14.02;69.10;102383.41;4995214;28;45467;-74
2022/11/10 16:23:20;;;;;;;;;9.00;9.00;;;;;14.03;68.77;102393.28;4976866;28;45460;-76
2022/11/10 16:25:49;;;;;;;;;12.25;12.25;;;;;14.01;69.04;102396.00;4984631;28;45506;-76
2022/11/10 16:28:23;;;;;;;;;11.25;7.50;;;;;13.96;69.12;102386.28;4975549;28;46850;-75
2022/11/10 16:30:50;;;;;;;;;10.50;10.25;;;;;14.01;68.51;102393.31;4976069;28;45440;-74
2022/11/10 16:33:17;;;;;;;;;9.00;8.25;;;;;13.99;68.30;102399.69;4992887;28;45515;-73
2022/11/10 16:35:43;;;;;;;;;11.25;9.50;;;;;13.79;68.61;102368.00;4995096;28;45401;-75
2022/11/10 16:38:29;;;;;;;;;15.00;12.75;;;;;13.87;68.37;102386.59;4995088;28;46207;-74
2022/11/10 16:41:00;;;;;;;;;9.25;7.25;;;;;13.93;68.68;102402.59;4995467;28;45444;-76
2022/11/10 16:43:27;;;;;;;;;9.00;8.00;;;;;13.90;67.97;102400.00;4996041;28;45276;-76
2022/11/10 16:45:55;;;;;;;;;8.50;7.75;;;;;13.91;68.34;102405.34;4991872;28;45549;-75
2022/11/10 16:48:23;;;;;;;;;13.00;9.25;;;;;13.58;68.48;102350.72;4975561;28;46399;-76
2022/11/10 16:50:53;;;;;;;;;7.25;7.25;;;;;13.89;68.56;102407.19;4974606;28;45609;-76
2022/11/10 16:53:22;;;;;;;;;9.00;9.00;;;;;13.75;68.36;102390.59;4987725;28;45425;-76
2022/11/10 16:55:48;;;;;;;;;9.00;8.00;;;;;13.83;68.37;102417.31;4995871;28;45472;-78
2022/11/10 16:58:13;;;;;;;;;8.50;8.00;;;;;13.84;68.20;102428.03;4996608;28;45313;-77
2022/11/10 17:00:39;;;;;;;;;11.25;8.50;;;;;13.76;68.50;102419.31;4976908;28;45283;-76
2022/11/10 17:03:24;;;;;;;;;4.00;4.00;;;;;13.82;67.67;102440.69;4994250;28;45410;-77
2022/11/10 17:05:49;;;;;;;;;8.50;6.75;;;;;13.78;67.74;102446.25;4985572;28;45493;-76